createdAt,value
2019-02-18T00:02:51.548Z,30.93
2019-02-18T00:06:58.546Z,31.43
2019-02-18T00:11:05.483Z,31.67
2019-02-18T00:15:12.400Z,32.33
2019-02-18T00:19:19.369Z,35.83
2019-02-18T00:23:26.398Z,29.80
2019-02-18T00:27:33.306Z,30.23
2019-02-18T00:31:40.142Z,32.20
2019-02-18T00:35:47.173Z,30.70
2019-02-18T00:39:54.262Z,35.20
2019-02-18T00:44:01.311Z,31.13
2019-02-18T00:48:08.404Z,32.13
2019-02-18T00:52:15.511Z,32.00
2019-02-18T00:56:24.536Z,31.97
2019-02-18T01:00:31.501Z,33.57
2019-02-18T01:04:39.757Z,32.40
2019-02-18T01:08:46.853Z,35.30
2019-02-18T01:12:53.912Z,35.50
2019-02-18T01:17:00.915Z,32.57
2019-02-18T01:21:08.191Z,33.67
2019-02-18T01:25:20.855Z,32.97
2019-02-18T01:29:27.875Z,31.80
2019-02-18T01:33:34.957Z,31.60
2019-02-18T01:37:45.726Z,33.33
2019-02-18T01:41:50.601Z,33.43
2019-02-18T01:45:57.590Z,32.47
2019-02-18T01:50:05.189Z,32.93
2019-02-18T01:54:12.023Z,34.43
2019-02-18T01:58:18.945Z,34.63
2019-02-18T02:02:25.872Z,35.33
2019-02-18T02:06:32.734Z,37.13
2019-02-18T02:10:39.549Z,35.53
2019-02-18T02:14:46.405Z,34.53
2019-02-18T02:18:53.197Z,36.00
2019-02-18T02:23:00.089Z,34.03
2019-02-18T02:27:06.926Z,36.07
2019-02-18T02:31:13.743Z,35.23
2019-02-18T02:35:20.619Z,34.23
2019-02-18T02:39:27.630Z,34.27
2019-02-18T02:43:34.554Z,35.57
2019-02-18T02:47:41.480Z,36.37
2019-02-18T02:51:48.457Z,36.30
2019-02-18T02:55:55.369Z,38.37
2019-02-18T03:00:02.332Z,37.27
2019-02-18T03:04:10.763Z,36.00
2019-02-18T03:08:20.695Z,35.13
2019-02-18T03:12:26.354Z,36.33
2019-02-18T03:16:33.233Z,35.37
2019-02-18T03:20:40.075Z,37.07
2019-02-18T03:25:33.190Z,37.53
2019-02-18T03:30:37.963Z,36.57
2019-02-18T03:34:47.052Z,39.07
2019-02-18T03:38:53.895Z,34.10
2019-02-18T03:43:02.787Z,42.37
2019-02-18T03:47:10.402Z,35.93
2019-02-18T03:51:17.242Z,37.57
2019-02-18T03:55:24.076Z,37.67
2019-02-18T03:59:31.026Z,36.13
2019-02-18T04:03:37.882Z,38.30
2019-02-18T04:07:44.815Z,44.37
2019-02-18T04:11:51.624Z,39.67
2019-02-18T04:15:58.516Z,38.13
2019-02-18T04:20:05.427Z,39.43
2019-02-18T04:24:12.255Z,39.93
2019-02-18T04:28:19.039Z,42.60
2019-02-18T04:32:25.881Z,42.33
2019-02-18T04:36:32.722Z,41.20
2019-02-18T04:40:39.523Z,47.30
2019-02-18T04:44:46.364Z,46.30
2019-02-18T04:48:53.175Z,43.00
2019-02-18T04:53:01.477Z,42.60
2019-02-18T04:57:08.283Z,41.67
2019-02-18T05:01:15.132Z,39.50
2019-02-18T05:05:21.953Z,41.47
2019-02-18T05:09:28.755Z,45.97
2019-02-18T05:13:35.645Z,41.57
2019-02-18T05:17:42.493Z,39.47
2019-02-18T05:21:49.522Z,42.83
2019-02-18T05:25:56.446Z,47.23
2019-02-18T05:30:03.326Z,43.13
2019-02-18T05:34:10.293Z,42.57
2019-02-18T05:38:17.146Z,43.07
2019-02-18T05:42:23.962Z,43.53
2019-02-18T05:46:31.390Z,44.67
2019-02-18T05:50:38.344Z,41.30
2019-02-18T05:54:45.243Z,39.10
2019-02-18T05:58:52.056Z,45.53
2019-02-18T06:02:58.927Z,39.73
2019-02-18T06:07:05.825Z,44.17
2019-02-18T06:11:12.768Z,44.50
2019-02-18T06:15:23.655Z,46.20
2019-02-18T06:19:30.771Z,46.83
2019-02-18T06:23:37.602Z,43.87
2019-02-18T06:27:44.467Z,42.80
2019-02-18T06:31:51.286Z,42.00
2019-02-18T06:35:58.239Z,39.50
2019-02-18T06:40:05.679Z,49.67
2019-02-18T06:44:12.565Z,53.00
2019-02-18T06:48:44.098Z,46.60
2019-02-18T06:52:50.978Z,52.17
2019-02-18T06:57:19.823Z,52.00
2019-02-18T07:01:44.183Z,51.67
2019-02-18T07:06:02.174Z,50.90
2019-02-18T07:10:20.965Z,53.33
2019-02-18T07:14:27.928Z,47.33
2019-02-18T07:18:34.846Z,46.63
2019-02-18T07:22:41.695Z,47.97
2019-02-18T07:26:48.637Z,51.57
2019-02-18T07:31:12.379Z,47.40
2019-02-18T07:35:16.221Z,43.87
2019-02-18T07:39:23.177Z,49.03
2019-02-18T07:43:30.077Z,48.57
2019-02-18T07:47:37.063Z,49.43
2019-02-18T07:51:44.098Z,47.83
2019-02-18T07:55:51.042Z,51.30
2019-02-18T07:59:58.029Z,47.97
2019-02-18T08:04:04.959Z,46.50
2019-02-18T08:08:11.776Z,47.70
2019-02-18T08:12:18.638Z,38.93
2019-02-18T08:16:25.574Z,39.23
2019-02-18T08:20:32.588Z,42.43
2019-02-18T08:24:39.494Z,37.00
2019-02-18T08:28:46.420Z,39.80
2019-02-18T08:32:53.421Z,36.00
2019-02-18T08:37:00.385Z,32.93
2019-02-18T08:41:07.339Z,33.20
2019-02-18T08:45:14.405Z,36.10
2019-02-18T08:49:21.289Z,31.70
2019-02-18T08:53:28.277Z,30.63
2019-02-18T08:57:36.088Z,33.77
2019-02-18T09:01:42.971Z,31.07
2019-02-18T09:05:51.126Z,31.67
2019-02-18T09:09:57.993Z,31.03
2019-02-18T09:14:04.824Z,30.10
2019-02-18T09:18:11.688Z,36.77
2019-02-18T09:22:52.856Z,38.23
2019-02-18T09:26:59.705Z,40.80
2019-02-18T09:31:06.557Z,33.53
2019-02-18T09:35:13.761Z,31.40
2019-02-18T09:39:30.798Z,31.17
2019-02-18T09:43:31.419Z,29.50
2019-02-18T09:47:38.386Z,32.67
2019-02-18T09:51:45.273Z,30.77
2019-02-18T09:55:52.058Z,24.67
2019-02-18T09:59:58.896Z,23.40
2019-02-18T10:04:05.764Z,27.90
2019-02-18T10:08:12.622Z,24.67
2019-02-18T10:12:19.663Z,22.33
2019-02-18T10:16:26.574Z,21.87
2019-02-18T10:20:33.455Z,24.70
2019-02-18T10:24:50.637Z,21.03
2019-02-18T10:28:52.867Z,23.20
2019-02-18T10:33:00.434Z,21.50
2019-02-18T10:37:08.910Z,21.50
2019-02-18T10:41:15.844Z,20.73
2019-02-18T10:45:22.744Z,21.47
2019-02-18T10:49:29.805Z,22.70
2019-02-18T10:53:36.662Z,24.23
2019-02-18T10:57:43.886Z,22.30
2019-02-18T11:01:50.858Z,19.97
2019-02-18T11:05:58.153Z,18.50
2019-02-18T11:10:06.524Z,19.33
2019-02-18T11:14:13.471Z,17.90
2019-02-18T11:18:20.473Z,19.67
2019-02-18T11:22:27.614Z,29.07
2019-02-18T11:26:34.697Z,35.57
2019-02-18T11:30:41.661Z,15.87
2019-02-18T11:34:48.621Z,17.90
2019-02-18T11:38:55.505Z,16.70
2019-02-18T11:43:02.462Z,18.63
2019-02-18T11:47:09.340Z,14.93
2019-02-18T11:51:16.288Z,15.87
2019-02-18T11:55:23.105Z,14.93
2019-02-18T11:59:30.047Z,16.20
2019-02-18T12:03:36.999Z,14.80
2019-02-18T12:07:44.375Z,13.43
2019-02-18T12:11:51.284Z,13.13
2019-02-18T12:15:58.137Z,14.23
2019-02-18T12:20:06.386Z,11.57
2019-02-18T12:24:13.335Z,11.53
2019-02-18T12:28:20.227Z,12.67
2019-02-18T12:32:27.097Z,12.50
2019-02-18T12:36:33.976Z,11.50
2019-02-18T12:40:40.836Z,11.00
2019-02-18T12:44:47.831Z,11.60
2019-02-18T12:48:54.726Z,12.90
2019-02-18T12:53:01.596Z,11.93
2019-02-18T12:57:09.006Z,12.63
2019-02-18T13:01:16.038Z,12.20
2019-02-18T13:05:22.968Z,12.67
2019-02-18T13:09:29.893Z,11.43
2019-02-18T13:13:36.758Z,10.20
2019-02-18T13:17:44.209Z,11.77
2019-02-18T13:21:51.246Z,10.83
2019-02-18T13:26:02.285Z,12.77
2019-02-18T13:30:15.397Z,11.67
2019-02-18T13:34:22.414Z,11.30
2019-02-18T13:38:29.352Z,10.70
2019-02-18T13:42:36.291Z,10.93
2019-02-18T13:46:43.582Z,10.80
2019-02-18T13:50:51.909Z,12.60
2019-02-18T13:55:10.661Z,10.83
2019-02-18T13:59:18.235Z,11.30
2019-02-18T14:03:25.196Z,10.63
2019-02-18T14:07:33.283Z,9.43
2019-02-18T14:11:40.263Z,11.63
2019-02-18T14:15:47.151Z,10.57
2019-02-18T14:19:54.086Z,8.30
2019-02-18T14:24:00.926Z,10.17
2019-02-18T14:28:07.799Z,8.00
2019-02-18T14:32:14.789Z,9.83
2019-02-18T14:36:21.723Z,10.27
2019-02-18T14:40:28.947Z,11.23
2019-02-18T14:44:36.928Z,8.50
2019-02-18T14:48:44.090Z,11.03
2019-02-18T14:52:51.899Z,8.17
2019-02-18T14:56:58.784Z,10.70
2019-02-18T15:01:07.958Z,10.23
2019-02-18T15:05:15.223Z,12.83
2019-02-18T15:09:22.483Z,10.77
2019-02-18T15:13:29.512Z,14.80
2019-02-18T15:17:36.706Z,11.00
2019-02-18T15:21:43.538Z,9.93
2019-02-18T15:25:50.395Z,9.77
2019-02-18T15:29:57.325Z,11.27
2019-02-18T15:34:04.291Z,11.17
2019-02-18T15:38:11.150Z,11.90
2019-02-18T15:42:18.190Z,10.20
2019-02-18T15:46:25.622Z,10.73
2019-02-18T15:50:32.699Z,12.90
2019-02-18T15:54:39.663Z,11.90
2019-02-18T15:58:46.624Z,11.10
2019-02-18T16:02:53.507Z,13.50
2019-02-18T16:07:00.547Z,13.13
2019-02-18T16:11:07.388Z,11.47
2019-02-18T16:15:14.770Z,11.27
2019-02-18T16:19:22.022Z,14.90
2019-02-18T16:23:37.659Z,43.73
2019-02-18T16:27:44.918Z,11.50
2019-02-18T16:31:52.965Z,22.70
2019-02-18T16:36:00.128Z,14.70
2019-02-18T16:40:10.239Z,14.17
2019-02-18T16:44:17.504Z,13.53
2019-02-18T16:48:24.632Z,14.33
2019-02-18T16:52:31.594Z,16.67
2019-02-18T16:56:39.343Z,16.20
2019-02-18T17:00:46.624Z,13.33
2019-02-18T17:04:53.928Z,17.83
2019-02-18T17:09:00.891Z,14.20
2019-02-18T17:13:09.606Z,21.30
2019-02-18T17:17:16.721Z,16.23
2019-02-18T17:21:23.881Z,12.97
2019-02-18T17:25:30.858Z,64.73
2019-02-18T17:29:37.830Z,16.77
2019-02-18T17:33:45.009Z,14.90
2019-02-18T17:37:52.000Z,16.30
2019-02-18T17:41:59.039Z,15.73
2019-02-18T17:46:06.201Z,15.70
2019-02-18T17:50:15.216Z,15.90
2019-02-18T17:54:23.305Z,13.27
2019-02-18T17:58:30.253Z,19.70
2019-02-18T18:02:38.364Z,14.30
2019-02-18T18:06:45.223Z,13.17
2019-02-18T18:10:52.339Z,16.00
2019-02-18T18:14:59.288Z,12.63
2019-02-18T18:19:09.277Z,12.70
2019-02-18T18:23:14.945Z,33.20
2019-02-18T18:27:22.040Z,16.87
2019-02-18T18:31:31.673Z,19.30
2019-02-18T18:35:38.710Z,18.57
2019-02-18T18:39:46.115Z,17.57
2019-02-18T18:43:53.002Z,22.80
2019-02-18T18:48:00.066Z,78.13
2019-02-18T18:52:07.809Z,17.93
2019-02-18T18:56:15.515Z,17.40
2019-02-18T19:00:26.289Z,18.93
2019-02-18T19:04:33.311Z,19.77
2019-02-18T19:08:40.359Z,18.50
2019-02-18T19:12:47.289Z,18.97
2019-02-18T19:16:56.532Z,19.23
2019-02-18T19:21:07.858Z,18.70
2019-02-18T19:25:17.790Z,19.63
2019-02-18T19:29:26.690Z,18.43
2019-02-18T19:33:33.750Z,21.27
2019-02-18T19:37:40.870Z,25.93
2019-02-18T19:41:47.853Z,26.33
2019-02-18T19:45:55.296Z,26.70
2019-02-18T19:50:02.427Z,19.03
2019-02-18T19:54:10.449Z,19.10
2019-02-18T19:58:17.437Z,21.47
2019-02-18T20:02:24.304Z,24.23
2019-02-18T20:06:31.649Z,20.10
2019-02-18T20:10:38.897Z,20.37
2019-02-18T20:14:45.782Z,24.40
2019-02-18T20:18:52.672Z,16.83
2019-02-18T20:22:59.818Z,19.13
2019-02-18T20:27:07.079Z,16.40
2019-02-18T20:31:14.196Z,17.23
2019-02-18T20:35:21.183Z,18.57
2019-02-18T20:39:28.280Z,16.80
2019-02-18T20:43:35.632Z,24.83
2019-02-18T20:47:43.101Z,22.17
2019-02-18T20:51:50.345Z,18.50
2019-02-18T20:55:57.601Z,18.33
2019-02-18T21:00:08.409Z,17.60
2019-02-18T21:04:15.310Z,21.63
2019-02-18T21:08:23.774Z,69.77
2019-02-18T21:12:30.896Z,19.93
2019-02-18T21:16:37.831Z,16.40
2019-02-18T21:20:44.748Z,17.00
2019-02-18T21:24:51.739Z,16.83
2019-02-18T21:28:59.081Z,15.60
2019-02-18T21:33:06.005Z,15.17
2019-02-18T21:37:13.067Z,14.50
2019-02-18T21:41:19.958Z,14.77
2019-02-18T21:45:26.865Z,13.57
2019-02-18T21:49:35.319Z,12.77
2019-02-18T21:53:42.373Z,11.93
2019-02-18T21:57:50.312Z,13.53
2019-02-18T22:01:57.302Z,10.70
2019-02-18T22:06:04.519Z,10.10
2019-02-18T22:10:11.435Z,10.20
2019-02-18T22:14:19.256Z,10.43
2019-02-18T22:18:26.506Z,8.53
2019-02-18T22:22:33.418Z,8.40
2019-02-18T22:26:40.262Z,10.93
2019-02-18T22:30:47.184Z,8.47
2019-02-18T22:34:54.115Z,9.90
2019-02-18T22:39:00.998Z,8.73
2019-02-18T22:43:09.498Z,11.97
2019-02-18T22:47:16.869Z,11.13
2019-02-18T22:51:23.828Z,21.27
2019-02-18T22:55:30.720Z,9.07
2019-02-18T22:59:37.585Z,8.90
2019-02-18T23:03:44.416Z,9.63
2019-02-18T23:07:51.380Z,9.17
2019-02-18T23:11:58.271Z,11.57
2019-02-18T23:16:05.556Z,30.60
2019-02-18T23:20:12.926Z,13.23
2019-02-18T23:24:19.996Z,14.10
2019-02-18T23:28:26.939Z,11.53
2019-02-18T23:32:33.844Z,14.03
2019-02-18T23:36:40.680Z,13.60
2019-02-18T23:40:47.495Z,13.27
2019-02-18T23:44:59.237Z,12.03
2019-02-18T23:49:03.001Z,17.17
2019-02-18T23:53:09.873Z,15.90
2019-02-18T23:57:16.873Z,16.27
